sensor_id;sensor_type;location;lat;lon;timestamp;pressure;altitude;pressure_sealevel;temperature;humidity
62710;BME280;48770;51.624;5.886;2023-02-03T00:01:54;102312.94;;;19.55;39.33
62710;BME280;48770;51.624;5.886;2023-02-03T00:04:20;102314.91;;;19.54;39.44
62710;BME280;48770;51.624;5.886;2023-02-03T00:06:45;102318.81;;;19.53;39.51
62710;BME280;48770;51.624;5.886;2023-02-03T00:09:11;102309.63;;;19.53;39.48
62710;BME280;48770;51.624;5.886;2023-02-03T00:11:36;102309.91;;;19.51;39.19
62710;BME280;48770;51.624;5.886;2023-02-03T00:14:02;102301.06;;;19.49;39.39
62710;BME280;48770;51.624;5.886;2023-02-03T00:16:29;102297.78;;;19.47;39.30
62710;BME280;48770;51.624;5.886;2023-02-03T00:18:54;102298.59;;;19.48;39.34
62710;BME280;48770;51.624;5.886;2023-02-03T00:21:20;102297.78;;;19.47;39.51
62710;BME280;48770;51.624;5.886;2023-02-03T00:23:45;102311.97;;;19.46;39.40
62710;BME280;48770;51.624;5.886;2023-02-03T00:26:15;102320.28;;;19.46;39.41
62710;BME280;48770;51.624;5.886;2023-02-03T00:28:41;102311.44;;;19.44;39.28
62710;BME280;48770;51.624;5.886;2023-02-03T00:31:15;102318.13;;;19.42;39.46
62710;BME280;48770;51.624;5.886;2023-02-03T00:33:40;102330.34;;;19.41;39.45
62710;BME280;48770;51.624;5.886;2023-02-03T00:36:06;102320.41;;;19.40;39.41
62710;BME280;48770;51.624;5.886;2023-02-03T00:38:32;102326.25;;;19.39;39.51
62710;BME280;48770;51.624;5.886;2023-02-03T00:40:57;102335.69;;;19.38;39.45
62710;BME280;48770;51.624;5.886;2023-02-03T00:43:22;102342.38;;;19.37;39.49
62710;BME280;48770;51.624;5.886;2023-02-03T00:45:47;102336.00;;;19.36;39.29
62710;BME280;48770;51.624;5.886;2023-02-03T00:48:13;102330.78;;;19.35;39.37
62710;BME280;48770;51.624;5.886;2023-02-03T00:50:39;102341.88;;;19.35;39.35
62710;BME280;48770;51.624;5.886;2023-02-03T00:53:04;102329.94;;;19.34;39.52
62710;BME280;48770;51.624;5.886;2023-02-03T00:55:29;102334.66;;;19.34;39.40
62710;BME280;48770;51.624;5.886;2023-02-03T00:57:54;102336.94;;;19.32;39.29
62710;BME280;48770;51.624;5.886;2023-02-03T01:00:20;102336.94;;;19.32;39.44
62710;BME280;48770;51.624;5.886;2023-02-03T01:02:46;102342.78;;;19.30;39.42
62710;BME280;48770;51.624;5.886;2023-02-03T01:05:11;102345.56;;;19.30;39.42
62710;BME280;48770;51.624;5.886;2023-02-03T01:07:37;102348.63;;;19.29;39.35
62710;BME280;48770;51.624;5.886;2023-02-03T01:10:03;102355.81;;;19.30;39.48
62710;BME280;48770;51.624;5.886;2023-02-03T01:12:30;102359.41;;;19.30;39.55
62710;BME280;48770;51.624;5.886;2023-02-03T01:14:55;102358.91;;;19.28;39.07
62710;BME280;48770;51.624;5.886;2023-02-03T01:17:21;102356.44;;;19.27;39.48
62710;BME280;48770;51.624;5.886;2023-02-03T01:19:46;102350.06;;;19.26;39.29
62710;BME280;48770;51.624;5.886;2023-02-03T01:22:11;102361.44;;;19.25;39.46
62710;BME280;48770;51.624;5.886;2023-02-03T01:24:37;102356.72;;;19.25;39.34
62710;BME280;48770;51.624;5.886;2023-02-03T01:27:02;102349.53;;;19.24;39.39
62710;BME280;48770;51.624;5.886;2023-02-03T01:29:28;102346.75;;;19.24;39.57
62710;BME280;48770;51.624;5.886;2023-02-03T01:31:53;102332.38;;;19.22;39.38
62710;BME280;48770;51.624;5.886;2023-02-03T01:34:18;102332.38;;;19.22;39.40
62710;BME280;48770;51.624;5.886;2023-02-03T01:36:44;102337.09;;;19.22;39.50
62710;BME280;48770;51.624;5.886;2023-02-03T01:39:10;102345.41;;;19.22;39.52
62710;BME280;48770;51.624;5.886;2023-02-03T01:41:37;102348.50;;;19.20;39.57
62710;BME280;48770;51.624;5.886;2023-02-03T01:44:40;102349.09;;;19.17;39.29
62710;BME280;48770;51.624;5.886;2023-02-03T01:52:24;102330.81;;;19.16;39.47
62710;BME280;48770;51.624;5.886;2023-02-03T01:54:52;102324.97;;;19.18;39.52
62710;BME280;48770;51.624;5.886;2023-02-03T01:57:22;102329.69;;;19.17;39.29
62710;BME280;48770;51.624;5.886;2023-02-03T01:59:51;102327.22;;;19.16;39.28
62710;BME280;48770;51.624;5.886;2023-02-03T02:02:18;102327.22;;;19.16;39.41
62710;BME280;48770;51.624;5.886;2023-02-03T02:05:00;102320.34;;;19.13;39.36
62710;BME280;48770;51.624;5.886;2023-02-03T02:07:28;102302.38;;;19.10;39.39
62710;BME280;48770;51.624;5.886;2023-02-03T02:09:54;102287.06;;;19.13;39.27
62710;BME280;48770;51.624;5.886;2023-02-03T02:12:20;102290.97;;;19.12;39.37
62710;BME280;48770;51.624;5.886;2023-02-03T02:14:46;102293.75;;;19.12;39.47
62710;BME280;48770;51.624;5.886;2023-02-03T02:17:38;102295.50;;;19.08;39.34
62710;BME280;48770;51.624;5.886;2023-02-03T02:20:37;102295.28;;;19.04;39.33
62710;BME280;48770;51.624;5.886;2023-02-03T02:28:53;102304.44;;;19.05;39.18
62710;BME280;48770;51.624;5.886;2023-02-03T02:36:59;102285.03;;;19.05;39.35
62710;BME280;48770;51.624;5.886;2023-02-03T02:42:38;102297.53;;;19.02;39.19
62710;BME280;48770;51.624;5.886;2023-02-03T02:45:13;102284.00;;;19.01;39.49
62710;BME280;48770;51.624;5.886;2023-02-03T02:47:40;102282.34;;;19.00;39.51
62710;BME280;48770;51.624;5.886;2023-02-03T02:52:39;102283.69;;;19.02;39.39
62710;BME280;48770;51.624;5.886;2023-02-03T02:55:27;102274.25;;;19.03;39.41
62710;BME280;48770;51.624;5.886;2023-02-03T02:58:00;102286.75;;;19.01;39.41
62710;BME280;48770;51.624;5.886;2023-02-03T03:00:30;102288.41;;;19.02;39.33
62710;BME280;48770;51.624;5.886;2023-02-03T03:03:06;102308.94;;;19.01;39.31
62710;BME280;48770;51.624;5.886;2023-02-03T03:05:31;102297.03;;;19.00;39.29
62710;BME280;48770;51.624;5.886;2023-02-03T03:07:59;102303.09;;;19.02;39.17
62710;BME280;48770;51.624;5.886;2023-02-03T03:10:30;102299.50;;;19.02;39.49
62710;BME280;48770;51.624;5.886;2023-02-03T03:13:00;102305.34;;;19.00;39.27
62710;BME280;48770;51.624;5.886;2023-02-03T03:15:30;102296.22;;;19.00;39.23
62710;BME280;48770;51.624;5.886;2023-02-03T03:21:00;102278.50;;;18.96;39.38
62710;BME280;48770;51.624;5.886;2023-02-03T03:23:33;102257.47;;;18.95;39.16
62710;BME280;48770;51.624;5.886;2023-02-03T03:26:09;102258.28;;;18.95;39.39
62710;BME280;48770;51.624;5.886;2023-02-03T03:28:41;102259.13;;;18.96;39.24
62710;BME280;48770;51.624;5.886;2023-02-03T03:31:09;102254.38;;;18.96;39.32
62710;BME280;48770;51.624;5.886;2023-02-03T03:33:35;102248.84;;;18.96;39.31
62710;BME280;48770;51.624;5.886;2023-02-03T03:36:25;102241.66;;;18.95;39.20
62710;BME280;48770;51.624;5.886;2023-02-03T03:39:19;102251.19;;;18.89;39.33
62710;BME280;48770;51.624;5.886;2023-02-03T03:41:57;102255.31;;;18.92;39.38
62710;BME280;48770;51.624;5.886;2023-02-03T03:44:31;102256.13;;;18.92;39.35
62710;BME280;48770;51.624;5.886;2023-02-03T03:49:34;102279.94;;;18.93;39.20
62710;BME280;48770;51.624;5.886;2023-02-03T03:52:04;102291.03;;;18.93;39.39
62710;BME280;48770;51.624;5.886;2023-02-03T03:54:31;102272.75;;;18.92;39.31
62710;BME280;48770;51.624;5.886;2023-02-03T03:59:27;102283.03;;;18.92;39.26
62710;BME280;48770;51.624;5.886;2023-02-03T04:01:56;102288.25;;;18.93;39.21
62710;BME280;48770;51.624;5.886;2023-02-03T04:04:23;102272.47;;;18.94;39.26
62710;BME280;48770;51.624;5.886;2023-02-03T04:06:52;102278.31;;;18.92;39.14
62710;BME280;48770;51.624;5.886;2023-02-03T04:09:18;102283.03;;;18.92;39.00
62710;BME280;48770;51.624;5.886;2023-02-03T04:11:43;102301.91;;;18.90;39.29
62710;BME280;48770;51.624;5.886;2023-02-03T04:14:33;102294.22;;;18.87;39.09
62710;BME280;48770;51.624;5.886;2023-02-03T04:16:59;102294.72;;;18.89;39.32
62710;BME280;48770;51.624;5.886;2023-02-03T04:19:24;102299.44;;;18.88;39.22
62710;BME280;48770;51.624;5.886;2023-02-03T04:21:50;102310.53;;;18.88;39.14
62710;BME280;48770;51.624;5.886;2023-02-03T04:24:16;102305.81;;;18.89;39.27
62710;BME280;48770;51.624;5.886;2023-02-03T04:26:41;102291.44;;;18.87;39.28
62710;BME280;48770;51.624;5.886;2023-02-03T04:29:07;102297.81;;;18.87;39.17
62710;BME280;48770;51.624;5.886;2023-02-03T04:31:32;102289.78;;;18.86;39.11
62710;BME280;48770;51.624;5.886;2023-02-03T04:33:57;102300.88;;;18.86;39.22
62710;BME280;48770;51.624;5.886;2023-02-03T04:36:23;102301.19;;;18.84;39.18
62710;BME280;48770;51.624;5.886;2023-02-03T04:38:48;102290.91;;;18.85;39.12
62710;BME280;48770;51.624;5.886;2023-02-03T04:41:14;102297.28;;;18.85;39.20
62710;BME280;48770;51.624;5.886;2023-02-03T04:43:40;102299.22;;;18.85;39.22
62710;BME280;48770;51.624;5.886;2023-02-03T04:46:05;102303.94;;;18.84;39.16
62710;BME280;48770;51.624;5.886;2023-02-03T04:48:30;102295.63;;;18.84;38.76
62710;BME280;48770;51.624;5.886;2023-02-03T04:51:06;102279.31;;;18.83;39.26
62710;BME280;48770;51.624;5.886;2023-02-03T04:53:32;102276.53;;;18.83;39.23
62710;BME280;48770;51.624;5.886;2023-02-03T04:55:58;102263.81;;;18.82;39.16
62710;BME280;48770;51.624;5.886;2023-02-03T04:58:23;102256.31;;;18.82;38.95
62710;BME280;48770;51.624;5.886;2023-02-03T05:00:50;102257.16;;;18.83;39.39
62710;BME280;48770;51.624;5.886;2023-02-03T05:03:15;102251.91;;;18.81;39.34
62710;BME280;48770;51.624;5.886;2023-02-03T05:05:41;102255.00;;;18.79;39.21
62710;BME280;48770;51.624;5.886;2023-02-03T05:08:06;102259.41;;;18.81;39.11
62710;BME280;48770;51.624;5.886;2023-02-03T05:10:31;102251.41;;;18.79;39.34
62710;BME280;48770;51.624;5.886;2023-02-03T05:12:56;102263.31;;;18.79;39.21
62710;BME280;48770;51.624;5.886;2023-02-03T05:15:22;102268.84;;;18.79;39.04
62710;BME280;48770;51.624;5.886;2023-02-03T05:17:47;102279.94;;;18.79;39.17
62710;BME280;48770;51.624;5.886;2023-02-03T05:20:12;102278.28;;;18.78;39.01
62710;BME280;48770;51.624;5.886;2023-02-03T05:22:39;102269.97;;;18.78;39.44
62710;BME280;48770;51.624;5.886;2023-02-03T05:25:04;102269.97;;;18.78;39.11
62710;BME280;48770;51.624;5.886;2023-02-03T05:27:30;102265.56;;;18.77;39.13
62710;BME280;48770;51.624;5.886;2023-02-03T05:29:55;102274.69;;;18.78;39.04
62710;BME280;48770;51.624;5.886;2023-02-03T05:32:20;102280.53;;;18.76;39.19
62710;BME280;48770;51.624;5.886;2023-02-03T05:34:46;102288.03;;;18.76;39.21
62710;BME280;48770;51.624;5.886;2023-02-03T05:37:11;102280.53;;;18.76;39.02
62710;BME280;48770;51.624;5.886;2023-02-03T05:39:36;102276.94;;;18.76;39.37
62710;BME280;48770;51.624;5.886;2023-02-03T05:42:02;102276.13;;;18.75;39.23
62710;BME280;48770;51.624;5.886;2023-02-03T05:44:28;102273.34;;;18.75;39.16
62710;BME280;48770;51.624;5.886;2023-02-03T05:46:56;102297.97;;;18.77;39.16
62710;BME280;48770;51.624;5.886;2023-02-03T05:49:23;102289.16;;;18.75;39.07
62710;BME280;48770;51.624;5.886;2023-02-03T05:51:53;102287.22;;;18.75;39.28
62710;BME280;48770;51.624;5.886;2023-02-03T05:54:19;102288.34;;;18.74;39.36
62710;BME280;48770;51.624;5.886;2023-02-03T05:56:44;102285.84;;;18.73;39.28
62710;BME280;48770;51.624;5.886;2023-02-03T05:59:09;102278.66;;;18.72;39.07
62710;BME280;48770;51.624;5.886;2023-02-03T06:01:35;102281.41;;;18.72;39.11
62710;BME280;48770;51.624;5.886;2023-02-03T06:04:01;102286.66;;;18.73;39.22
62710;BME280;48770;51.624;5.886;2023-02-03T06:06:27;102287.78;;;18.72;39.07
62710;BME280;48770;51.624;5.886;2023-02-03T06:09:02;102293.31;;;18.72;39.31
62710;BME280;48770;51.624;5.886;2023-02-03T06:11:27;102294.44;;;18.71;39.16
62710;BME280;48770;51.624;5.886;2023-02-03T06:13:54;102283.38;;;18.71;39.37
62710;BME280;48770;51.624;5.886;2023-02-03T06:16:20;102280.59;;;18.71;39.11
62710;BME280;48770;51.624;5.886;2023-02-03T06:18:45;102282.53;;;18.71;39.11
62710;BME280;48770;51.624;5.886;2023-02-03T06:21:10;102275.38;;;18.70;39.17
62710;BME280;48770;51.624;5.886;2023-02-03T06:23:36;102268.19;;;18.69;39.09
62710;BME280;48770;51.624;5.886;2023-02-03T06:26:01;102267.34;;;18.68;39.26
62710;BME280;48770;51.624;5.886;2023-02-03T06:28:26;102257.91;;;18.69;39.08
62710;BME280;48770;51.624;5.886;2023-02-03T06:30:52;102255.44;;;18.68;38.99
62710;BME280;48770;51.624;5.886;2023-02-03T06:33:18;102269.00;;;18.69;39.03
62710;BME280;48770;51.624;5.886;2023-02-03T06:35:44;102277.31;;;18.69;38.91
62710;BME280;48770;51.624;5.886;2023-02-03T06:38:09;102267.66;;;18.67;39.24
62710;BME280;48770;51.624;5.886;2023-02-03T06:40:34;102297.31;;;18.66;39.03
62710;BME280;48770;51.624;5.886;2023-02-03T06:43:00;102280.69;;;18.66;39.16
62710;BME280;48770;51.624;5.886;2023-02-03T06:45:25;102293.72;;;18.66;39.26
62710;BME280;48770;51.624;5.886;2023-02-03T06:47:50;102291.78;;;18.66;39.21
62710;BME280;48770;51.624;5.886;2023-02-03T06:50:16;102283.75;;;18.65;39.08
62710;BME280;48770;51.624;5.886;2023-02-03T06:52:42;102278.22;;;18.65;39.06
62710;BME280;48770;51.624;5.886;2023-02-03T06:55:07;102278.22;;;18.65;39.38
62710;BME280;48770;51.624;5.886;2023-02-03T06:57:33;102272.69;;;18.65;39.15
62710;BME280;48770;51.624;5.886;2023-02-03T06:59:58;102277.41;;;18.64;38.95
62710;BME280;48770;51.624;5.886;2023-02-03T07:02:24;102282.94;;;18.64;39.27
62710;BME280;48770;51.624;5.886;2023-02-03T07:04:49;102280.47;;;18.63;39.02
62710;BME280;48770;51.624;5.886;2023-02-03T07:07:14;102308.19;;;18.63;39.22
62710;BME280;48770;51.624;5.886;2023-02-03T07:09:40;102320.09;;;18.63;38.99
62710;BME280;48770;51.624;5.886;2023-02-03T07:12:06;102318.97;;;18.64;39.14
62710;BME280;48770;51.624;5.886;2023-02-03T07:14:32;102308.19;;;18.63;39.25
62710;BME280;48770;51.624;5.886;2023-02-03T07:17:01;102298.19;;;18.62;39.04
62710;BME280;48770;51.624;5.886;2023-02-03T07:19:26;102308.44;;;18.61;38.93
62710;BME280;48770;51.624;5.886;2023-02-03T07:21:51;102300.97;;;18.62;39.20
62710;BME280;48770;51.624;5.886;2023-02-03T07:24:17;102300.13;;;18.61;39.14
62710;BME280;48770;51.624;5.886;2023-02-03T07:26:42;102304.84;;;18.61;39.22
62710;BME280;48770;51.624;5.886;2023-02-03T07:29:07;102304.03;;;18.60;39.04
62710;BME280;48770;51.624;5.886;2023-02-03T07:31:33;102298.50;;;18.60;39.18
62710;BME280;48770;51.624;5.886;2023-02-03T07:33:59;102283.81;;;18.60;39.13
62710;BME280;48770;51.624;5.886;2023-02-03T07:36:25;102296.84;;;18.59;39.22
62710;BME280;48770;51.624;5.886;2023-02-03T07:38:53;102313.47;;;18.59;39.16
62710;BME280;48770;51.624;5.886;2023-02-03T07:41:18;102314.59;;;18.58;39.07
62710;BME280;48770;51.624;5.886;2023-02-03T07:43:43;102317.38;;;18.58;39.18
62710;BME280;48770;51.624;5.886;2023-02-03T07:46:09;102312.94;;;18.57;39.17
62710;BME280;48770;51.624;5.886;2023-02-03T07:48:34;102314.91;;;18.57;39.16
62710;BME280;48770;51.624;5.886;2023-02-03T07:50:59;102324.56;;;18.59;39.02
62710;BME280;48770;51.624;5.886;2023-02-03T07:53:25;102324.03;;;18.57;39.21
62710;BME280;48770;51.624;5.886;2023-02-03T07:55:50;102329.88;;;18.56;39.05
62710;BME280;48770;51.624;5.886;2023-02-03T07:58:16;102337.06;;;18.57;39.04
62710;BME280;48770;51.624;5.886;2023-02-03T08:00:41;102339.00;;;18.56;39.32
62710;BME280;48770;51.624;5.886;2023-02-03T08:03:07;102337.88;;;18.57;39.18
62710;BME280;48770;51.624;5.886;2023-02-03T08:05:32;102334.59;;;18.55;39.25
62710;BME280;48770;51.624;5.886;2023-02-03T08:07:58;102349.56;;;18.54;39.07
62710;BME280;48770;51.624;5.886;2023-02-03T08:10:23;102331.00;;;18.55;39.16
62710;BME280;48770;51.624;5.886;2023-02-03T08:12:52;102340.13;;;18.55;39.23
62710;BME280;48770;51.624;5.886;2023-02-03T08:15:18;102335.72;;;18.54;39.32
62710;BME280;48770;51.624;5.886;2023-02-03T08:17:44;102345.66;;;18.55;39.00
62710;BME280;48770;51.624;5.886;2023-02-03T08:20:10;102342.91;;;18.55;39.11
62710;BME280;48770;51.624;5.886;2023-02-03T08:22:36;102349.56;;;18.54;39.17
62710;BME280;48770;51.624;5.886;2023-02-03T08:25:01;102349.56;;;18.54;39.26
62710;BME280;48770;51.624;5.886;2023-02-03T08:27:28;102357.88;;;18.54;39.30
62710;BME280;48770;51.624;5.886;2023-02-03T08:29:53;102359.00;;;18.53;39.16
62710;BME280;48770;51.624;5.886;2023-02-03T08:32:20;102363.72;;;18.53;39.27
62710;BME280;48770;51.624;5.886;2023-02-03T08:34:49;102364.53;;;18.53;39.20
62710;BME280;48770;51.624;5.886;2023-02-03T08:37:17;102359.00;;;18.53;39.23
62710;BME280;48770;51.624;5.886;2023-02-03T08:39:43;102369.25;;;18.53;39.29
62710;BME280;48770;51.624;5.886;2023-02-03T08:42:08;102357.34;;;18.52;39.12
62710;BME280;48770;51.624;5.886;2023-02-03T08:44:34;102368.75;;;18.51;39.49
62710;BME280;48770;51.624;5.886;2023-02-03T08:47:00;102369.56;;;18.51;39.27
62710;BME280;48770;51.624;5.886;2023-02-03T08:49:27;102373.16;;;18.52;39.41
62710;BME280;48770;51.624;5.886;2023-02-03T08:51:54;102365.66;;;18.52;39.22
62710;BME280;48770;51.624;5.886;2023-02-03T08:54:19;102362.91;;;18.52;39.19
62710;BME280;48770;51.624;5.886;2023-02-03T08:56:46;102360.13;;;18.52;39.21
62710;BME280;48770;51.624;5.886;2023-02-03T08:59:12;102356.53;;;18.52;39.34
62710;BME280;48770;51.624;5.886;2023-02-03T09:01:38;102362.06;;;18.52;39.42
62710;BME280;48770;51.624;5.886;2023-02-03T09:04:10;102367.91;;;18.50;39.46
62710;BME280;48770;51.624;5.886;2023-02-03T09:06:36;102365.97;;;18.51;39.28
62710;BME280;48770;51.624;5.886;2023-02-03T09:09:01;102377.03;;;18.51;39.40
62710;BME280;48770;51.624;5.886;2023-02-03T09:11:27;102369.84;;;18.49;39.20
62710;BME280;48770;51.624;5.886;2023-02-03T09:13:52;102374.56;;;18.49;39.41
62710;BME280;48770;51.624;5.886;2023-02-03T09:16:18;102371.81;;;18.49;39.37
62710;BME280;48770;51.624;5.886;2023-02-03T09:18:45;102379.00;;;18.50;39.38
62710;BME280;48770;51.624;5.886;2023-02-03T09:21:12;102385.66;;;18.49;39.40
62710;BME280;48770;51.624;5.886;2023-02-03T09:23:38;102393.97;;;18.49;39.32
62710;BME280;48770;51.624;5.886;2023-02-03T09:26:06;102391.19;;;18.49;39.34
62710;BME280;48770;51.624;5.886;2023-02-03T09:28:32;102393.97;;;18.49;39.20
62710;BME280;48770;51.624;5.886;2023-02-03T09:31:02;102392.84;;;18.50;38.96
62710;BME280;48770;51.624;5.886;2023-02-03T09:33:28;102392.31;;;18.48;39.17
62710;BME280;48770;51.624;5.886;2023-02-03T09:35:55;102403.09;;;18.49;39.39
62710;BME280;48770;51.624;5.886;2023-02-03T09:38:21;102409.47;;;18.50;39.27
62710;BME280;48770;51.624;5.886;2023-02-03T09:40:59;102409.47;;;18.50;39.29
62710;BME280;48770;51.624;5.886;2023-02-03T09:43:34;102411.09;;;18.51;39.36
62710;BME280;48770;51.624;5.886;2023-02-03T09:46:21;102412.75;;;18.52;39.47
62710;BME280;48770;51.624;5.886;2023-02-03T09:49:13;102395.63;;;18.50;39.35
62710;BME280;48770;51.624;5.886;2023-02-03T09:51:57;102396.66;;;18.54;39.41
62710;BME280;48770;51.624;5.886;2023-02-03T09:55:02;102382.81;;;18.54;39.53
62710;BME280;48770;51.624;5.886;2023-02-03T09:57:30;102387.16;;;18.60;39.46
62710;BME280;48770;51.624;5.886;2023-02-03T09:59:58;102382.38;;;18.66;39.54
62710;BME280;48770;51.624;5.886;2023-02-03T10:05:19;102383.94;;;18.72;39.48
62710;BME280;48770;51.624;5.886;2023-02-03T10:10:40;102390.25;;;18.77;39.38
62710;BME280;48770;51.624;5.886;2023-02-03T10:13:29;102399.38;;;18.78;39.13
62710;BME280;48770;51.624;5.886;2023-02-03T10:16:07;102402.91;;;18.84;39.18
62710;BME280;48770;51.624;5.886;2023-02-03T10:18:53;102399.53;;;18.87;39.17
62710;BME280;48770;51.624;5.886;2023-02-03T10:21:41;102407.00;;;18.86;39.08
62710;BME280;48770;51.624;5.886;2023-02-03T10:24:20;102404.16;;;18.91;39.11
62710;BME280;48770;51.624;5.886;2023-02-03T10:26:49;102412.69;;;18.95;39.09
62710;BME280;48770;51.624;5.886;2023-02-03T10:29:20;102416.50;;;18.99;39.03
62710;BME280;48770;51.624;5.886;2023-02-03T10:31:47;102412.84;;;19.03;39.04
62710;BME280;48770;51.624;5.886;2023-02-03T10:34:14;102413.38;;;19.05;38.95
62710;BME280;48770;51.624;5.886;2023-02-03T10:36:57;102401.97;;;19.07;38.77
62710;BME280;48770;51.624;5.886;2023-02-03T10:39:45;102398.06;;;19.08;38.80
62710;BME280;48770;51.624;5.886;2023-02-03T10:42:12;102413.78;;;19.13;38.73
62710;BME280;48770;51.624;5.886;2023-02-03T10:44:58;102401.28;;;19.15;38.79
62710;BME280;48770;51.624;5.886;2023-02-03T10:47:32;102407.34;;;19.17;38.72
62710;BME280;48770;51.624;5.886;2023-02-03T10:50:06;102413.91;;;19.21;38.85
62710;BME280;48770;51.624;5.886;2023-02-03T10:52:35;102405.28;;;19.23;38.62
62710;BME280;48770;51.624;5.886;2023-02-03T10:55:05;102399.69;;;19.28;38.50
62710;BME280;48770;51.624;5.886;2023-02-03T10:57:34;102412.13;;;19.30;38.56
62710;BME280;48770;51.624;5.886;2023-02-03T11:00:07;102425.06;;;19.35;38.45
62710;BME280;48770;51.624;5.886;2023-02-03T11:02:33;102417.25;;;19.37;38.43
62710;BME280;48770;51.624;5.886;2023-02-03T11:05:27;102424.56;;;19.33;38.26
62710;BME280;48770;51.624;5.886;2023-02-03T11:07:53;102429.69;;;19.39;38.36
62710;BME280;48770;51.624;5.886;2023-02-03T11:10:36;102441.31;;;19.41;38.37
62710;BME280;48770;51.624;5.886;2023-02-03T11:13:23;102432.16;;;19.41;38.46
62710;BME280;48770;51.624;5.886;2023-02-03T11:18:45;102429.09;;;19.42;38.36
62710;BME280;48770;51.624;5.886;2023-02-03T11:21:27;102427.03;;;19.48;38.30
62710;BME280;48770;51.624;5.886;2023-02-03T11:24:07;102426.22;;;19.48;38.23
62710;BME280;48770;51.624;5.886;2023-02-03T11:26:43;102430.34;;;19.50;38.30
62710;BME280;48770;51.624;5.886;2023-02-03T11:29:25;102424.50;;;19.52;38.24
62710;BME280;48770;51.624;5.886;2023-02-03T11:31:53;102424.50;;;19.52;38.30
62710;BME280;48770;51.624;5.886;2023-02-03T11:34:30;102423.09;;;19.54;38.27
62710;BME280;48770;51.624;5.886;2023-02-03T11:36:57;102429.47;;;19.55;38.34
62710;BME280;48770;51.624;5.886;2023-02-03T11:39:29;102447.47;;;19.57;38.19
62710;BME280;48770;51.624;5.886;2023-02-03T11:42:00;102439.97;;;19.58;38.13
62710;BME280;48770;51.624;5.886;2023-02-03T11:44:27;102427.44;;;19.60;38.07
62710;BME280;48770;51.624;5.886;2023-02-03T11:47:03;102434.63;;;19.61;38.26
62710;BME280;48770;51.624;5.886;2023-02-03T11:49:45;102427.94;;;19.62;38.04
62710;BME280;48770;51.624;5.886;2023-02-03T11:52:44;102428.88;;;19.58;38.15
62710;BME280;48770;51.624;5.886;2023-02-03T12:09:12;102420.94;;;19.65;38.50
62710;BME280;48770;51.624;5.886;2023-02-03T12:22:59;102412.94;;;19.63;39.04
62710;BME280;48770;51.624;5.886;2023-02-03T12:31:23;102434.25;;;19.82;39.32
62710;BME280;48770;51.624;5.886;2023-02-03T12:34:00;102441.13;;;19.84;39.37
62710;BME280;48770;51.624;5.886;2023-02-03T12:36:34;102449.16;;;19.86;39.21
62710;BME280;48770;51.624;5.886;2023-02-03T12:39:02;102451.63;;;19.87;39.24
62710;BME280;48770;51.624;5.886;2023-02-03T12:41:38;102466.84;;;19.90;39.29
62710;BME280;48770;51.624;5.886;2023-02-03T12:47:35;102461.59;;;19.88;39.00
62710;BME280;48770;51.624;5.886;2023-02-03T12:50:17;102456.56;;;19.90;39.29
62710;BME280;48770;51.624;5.886;2023-02-03T12:55:27;102458.72;;;19.93;39.26
62710;BME280;48770;51.624;5.886;2023-02-03T12:57:59;102451.53;;;19.92;38.94
62710;BME280;48770;51.624;5.886;2023-02-03T13:01:03;102441.84;;;19.90;39.00
62710;BME280;48770;51.624;5.886;2023-02-03T13:06:31;102454.41;;;19.87;39.06
62710;BME280;48770;51.624;5.886;2023-02-03T13:14:38;102463.34;;;19.84;39.08
62710;BME280;48770;51.624;5.886;2023-02-03T13:19:41;102468.91;;;19.84;38.94
62710;BME280;48770;51.624;5.886;2023-02-03T13:22:11;102461.69;;;19.83;39.15
62710;BME280;48770;51.624;5.886;2023-02-03T13:24:38;102463.66;;;19.83;38.95
62710;BME280;48770;51.624;5.886;2023-02-03T13:27:49;102466.81;;;19.76;38.96
62710;BME280;48770;51.624;5.886;2023-02-03T13:36:37;102481.28;;;19.73;39.17
62710;BME280;48770;51.624;5.886;2023-02-03T13:41:55;102479.66;;;19.72;39.32
62710;BME280;48770;51.624;5.886;2023-02-03T13:44:31;102466.06;;;19.70;39.20
62710;BME280;48770;51.624;5.886;2023-02-03T13:46:57;102472.44;;;19.71;39.34
62710;BME280;48770;51.624;5.886;2023-02-03T13:49:26;102472.44;;;19.71;39.15
62710;BME280;48770;51.624;5.886;2023-02-03T13:51:53;102474.41;;;19.70;39.12
62710;BME280;48770;51.624;5.886;2023-02-03T13:54:36;102474.72;;;19.69;39.09
62710;BME280;48770;51.624;5.886;2023-02-03T13:57:30;102469.25;;;19.64;39.31
62710;BME280;48770;51.624;5.886;2023-02-03T13:59:59;102482.81;;;19.65;39.41
62710;BME280;48770;51.624;5.886;2023-02-03T14:04:54;102485.59;;;19.65;39.05
62710;BME280;48770;51.624;5.886;2023-02-03T14:12:58;102502.66;;;19.59;39.47
62710;BME280;48770;51.624;5.886;2023-02-03T14:22:50;102497.72;;;19.56;39.22
62710;BME280;48770;51.624;5.886;2023-02-03T14:25:18;102497.19;;;19.54;39.30
62710;BME280;48770;51.624;5.886;2023-02-03T14:27:44;102504.69;;;19.53;39.36
62710;BME280;48770;51.624;5.886;2023-02-03T14:30:10;102494.97;;;19.51;39.33
62710;BME280;48770;51.624;5.886;2023-02-03T14:33:01;102498.88;;;19.50;39.50
62710;BME280;48770;51.624;5.886;2023-02-03T14:35:38;102499.47;;;19.47;39.46
62710;BME280;48770;51.624;5.886;2023-02-03T14:38:13;102508.94;;;19.46;39.15
62710;BME280;48770;51.624;5.886;2023-02-03T14:40:56;102514.25;;;19.42;39.46
62710;BME280;48770;51.624;5.886;2023-02-03T14:46:05;102526.47;;;19.41;39.56
62710;BME280;48770;51.624;5.886;2023-02-03T15:04:39;102549.59;;;19.36;39.51
62710;BME280;48770;51.624;5.886;2023-02-03T15:07:05;102551.53;;;19.36;39.60
62710;BME280;48770;51.624;5.886;2023-02-03T15:09:35;102554.31;;;19.36;39.75
62710;BME280;48770;51.624;5.886;2023-02-03T15:12:17;102544.84;;;19.37;39.98
62710;BME280;48770;51.624;5.886;2023-02-03T15:14:42;102550.22;;;19.47;40.10